Time;durP1;ratioP1;P1;durP2;ratioP2;P2;SDS_P1;SDS_P2;PMS_P1;PMS_P2;Temp;Humidity;BMP_temperature;BMP_pressure;BME280_temperature;BME280_humidity;BME280_pressure;Samples;Min_cycle;Max_cycle;Signal;HPM_P1;HPM_P2
2023/07/08 00:00:23;;;;;;;3.35;1.73;;;20.90;99.90;;;;;;5072449;28;20028;-61
2023/07/08 00:02:50;;;;;;;3.03;1.52;;;20.90;99.90;;;;;;5073781;28;20036;-61
2023/07/08 00:05:17;;;;;;;4.38;1.75;;;20.90;99.90;;;;;;5071033;28;20500;-60
2023/07/08 00:07:44;;;;;;;2.80;1.77;;;20.80;99.90;;;;;;5072648;28;20109;-62
2023/07/08 00:11:01;;;;;;;2.75;1.77;;;20.80;99.90;;;;;;5080238;28;20179;-60
2023/07/08 00:13:26;;;;;;;3.60;1.85;;;20.70;99.90;;;;;;5084825;28;20036;-60
2023/07/08 00:15:52;;;;;;;5.03;1.70;;;20.80;99.90;;;;;;5090041;28;20028;-60
2023/07/08 00:18:18;;;;;;;3.78;1.83;;;20.70;99.90;;;;;;5071991;28;20433;-60
2023/07/08 00:20:49;;;;;;;3.70;2.03;;;20.70;99.90;;;;;;5070789;28;20124;-61
2023/07/08 00:23:15;;;;;;;2.58;1.80;;;20.70;99.90;;;;;;5068213;28;20128;-61
2023/07/08 00:25:41;;;;;;;1.85;1.42;;;20.70;99.90;;;;;;5052481;28;20057;-60
2023/07/08 00:28:12;;;;;;;2.08;1.77;;;20.70;99.90;;;;;;5052360;28;20401;-60
2023/07/08 00:30:37;;;;;;;1.98;1.80;;;20.60;99.90;;;;;;5068220;28;20049;-62
2023/07/08 00:33:05;;;;;;;5.75;1.67;;;20.60;99.90;;;;;;5069574;28;20496;-63
2023/07/08 00:35:39;;;;;;;2.83;1.52;;;20.60;99.90;;;;;;5069853;28;20426;-63
2023/07/08 00:38:20;;;;;;;2.17;1.55;;;20.60;99.90;;;;;;5067803;28;20476;-62
2023/07/08 00:40:58;;;;;;;4.00;1.88;;;20.60;99.90;;;;;;5069529;28;20036;-62
2023/07/08 00:43:47;;;;;;;5.80;2.10;;;20.50;99.90;;;;;;5066981;28;20040;-63
2023/07/08 00:46:25;;;;;;;2.95;1.70;;;20.50;99.90;;;;;;5056193;28;20474;-62
2023/07/08 00:48:56;;;;;;;3.28;2.05;;;20.40;99.90;;;;;;5054352;28;20033;-62
2023/07/08 00:51:22;;;;;;;1.80;1.67;;;20.40;99.90;;;;;;5069313;28;20028;-62
2023/07/08 00:53:48;;;;;;;2.60;1.70;;;20.40;99.90;;;;;;5069264;28;20514;-61
2023/07/08 00:56:49;;;;;;;3.05;2.05;;;20.30;99.90;;;;;;5069241;28;20024;-62
2023/07/08 00:59:24;;;;;;;3.70;1.58;;;20.20;99.90;;;;;;5066966;28;20032;-63
2023/07/08 01:01:51;;;;;;;2.25;1.65;;;20.30;99.90;;;;;;5067328;28;20036;-62
2023/07/08 01:04:28;;;;;;;2.38;1.60;;;20.20;99.90;;;;;;5047838;28;20537;-62
2023/07/08 01:06:58;;;;;;;4.32;1.75;;;20.20;99.90;;;;;;5062723;28;20036;-59
2023/07/08 01:09:30;;;;;;;1.55;1.40;;;20.10;99.90;;;;;;5067363;28;20049;-59
2023/07/08 01:12:01;;;;;;;2.13;1.83;;;20.10;99.90;;;;;;5067553;28;20454;-59
2023/07/08 01:14:31;;;;;;;3.03;2.22;;;20.10;99.90;;;;;;5067603;28;20025;-62
2023/07/08 01:16:57;;;;;;;2.40;1.83;;;20.10;99.90;;;;;;5068829;28;20025;-59
2023/07/08 01:19:33;;;;;;;2.20;2.00;;;20.00;99.90;;;;;;5059982;28;20036;-59
2023/07/08 01:22:04;;;;;;;2.33;1.85;;;20.00;99.90;;;;;;5037739;28;20034;-59
2023/07/08 01:24:32;;;;;;;2.05;1.70;;;19.90;99.90;;;;;;5053169;28;20182;-59
2023/07/08 01:27:01;;;;;;;3.13;1.67;;;19.90;99.90;;;;;;5073446;28;20389;-64
2023/07/08 01:29:26;;;;;;;3.83;1.92;;;19.90;99.90;;;;;;5060274;28;20154;-60
2023/07/08 01:31:58;;;;;;;1.83;1.58;;;19.90;99.90;;;;;;5075346;28;20107;-59
2023/07/08 01:34:24;;;;;;;4.97;1.75;;;19.80;99.90;;;;;;5056487;28;20541;-59
2023/07/08 01:36:56;;;;;;;2.35;2.15;;;19.80;99.90;;;;;;5068958;28;20023;-59
2023/07/08 01:39:24;;;;;;;3.13;2.20;;;19.80;99.90;;;;;;5066926;28;20040;-59
2023/07/08 01:41:50;;;;;;;3.65;2.10;;;19.70;99.90;;;;;;5073389;28;20024;-59
2023/07/08 01:44:31;;;;;;;2.00;1.50;;;19.70;99.90;;;;;;5053507;28;20500;-59
2023/07/08 01:47:07;;;;;;;2.58;1.88;;;19.70;99.90;;;;;;5064575;28;20032;-59
2023/07/08 01:49:35;;;;;;;5.45;1.90;;;19.60;99.90;;;;;;5074943;28;20033;-59
2023/07/08 01:52:02;;;;;;;2.03;1.85;;;19.50;99.90;;;;;;5060457;28;20040;-59
2023/07/08 01:54:27;;;;;;;2.53;1.80;;;19.50;99.90;;;;;;5053802;28;20032;-60
2023/07/08 01:56:57;;;;;;;3.80;2.20;;;19.50;99.90;;;;;;5060233;28;20025;-59
2023/07/08 01:59:23;;;;;;;4.65;2.42;;;19.50;99.90;;;;;;5061903;28;20028;-59
2023/07/08 02:01:54;;;;;;;2.25;1.95;;;19.40;99.90;;;;;;5075044;28;20033;-59
2023/07/08 02:04:21;;;;;;;2.33;1.85;;;19.40;99.90;;;;;;5075041;28;20055;-59
2023/07/08 02:06:57;;;;;;;3.50;2.17;;;19.40;99.90;;;;;;5067408;28;20523;-59
2023/07/08 02:09:24;;;;;;;4.25;2.10;;;19.30;99.90;;;;;;5066565;28;20036;-59
2023/07/08 02:11:50;;;;;;;4.63;1.77;;;19.30;99.90;;;;;;5074530;28;20021;-59
2023/07/08 02:14:16;;;;;;;1.70;1.60;;;19.30;99.90;;;;;;5052191;28;20397;-59
2023/07/08 02:16:41;;;;;;;4.90;1.98;;;19.20;99.90;;;;;;5054453;28;20083;-59
2023/07/08 02:19:08;;;;;;;1.83;1.67;;;19.30;99.90;;;;;;5056057;28;20032;-59
2023/07/08 02:21:33;;;;;;;2.90;1.73;;;19.20;99.90;;;;;;5054338;28;20527;-65
2023/07/08 02:24:00;;;;;;;2.17;1.60;;;19.20;99.90;;;;;;5053491;28;20028;-58
2023/07/08 02:26:26;;;;;;;4.15;1.77;;;19.20;99.90;;;;;;5054166;28;20032;-63
2023/07/08 02:28:52;;;;;;;2.67;2.10;;;19.20;99.90;;;;;;5051562;28;20033;-59
2023/07/08 02:31:17;;;;;;;5.80;2.00;;;19.20;99.90;;;;;;5054247;28;20032;-59
2023/07/08 02:33:43;;;;;;;1.98;1.80;;;19.20;99.90;;;;;;5051041;28;20440;-59
2023/07/08 02:36:09;;;;;;;6.18;1.95;;;19.20;99.90;;;;;;5054040;28;20485;-59
2023/07/08 02:38:34;;;;;;;1.80;1.70;;;19.20;99.90;;;;;;5064990;28;20477;-59
2023/07/08 02:41:00;;;;;;;1.60;1.50;;;19.20;99.90;;;;;;5073983;28;20469;-59
2023/07/08 02:43:26;;;;;;;3.30;2.13;;;19.20;99.90;;;;;;5060934;28;20090;-59
2023/07/08 02:45:52;;;;;;;1.95;1.85;;;19.10;99.90;;;;;;5052091;28;20033;-59
2023/07/08 02:48:19;;;;;;;1.65;1.48;;;19.20;99.90;;;;;;5073746;28;20112;-59
2023/07/08 02:50:45;;;;;;;2.55;1.98;;;19.10;99.90;;;;;;5073690;28;20033;-59
2023/07/08 02:53:11;;;;;;;3.83;1.95;;;19.10;99.90;;;;;;5063608;28;20032;-59
2023/07/08 02:55:36;;;;;;;1.67;1.50;;;19.10;99.90;;;;;;5053700;28;20021;-59
2023/07/08 02:58:02;;;;;;;5.45;1.85;;;19.10;99.90;;;;;;5050349;28;20032;-59
2023/07/08 03:00:28;;;;;;;2.38;2.17;;;19.10;99.90;;;;;;5054233;28;20531;-59
2023/07/08 03:02:53;;;;;;;2.60;1.60;;;19.10;99.90;;;;;;5073559;28;20082;-59
2023/07/08 03:05:19;;;;;;;4.18;2.53;;;19.10;99.90;;;;;;5073525;28;20551;-58
2023/07/08 03:07:44;;;;;;;4.25;2.42;;;19.10;99.90;;;;;;5073444;28;20370;-59
2023/07/08 03:10:10;;;;;;;3.83;2.10;;;19.00;99.90;;;;;;5068540;28;20481;-58
2023/07/08 03:12:36;;;;;;;2.03;1.83;;;19.00;99.90;;;;;;5067748;28;20021;-59
2023/07/08 03:15:02;;;;;;;2.53;1.90;;;19.00;99.90;;;;;;5050892;28;20079;-62
2023/07/08 03:17:28;;;;;;;2.10;1.77;;;19.00;99.90;;;;;;5053333;28;20047;-58
2023/07/08 03:19:53;;;;;;;3.08;1.88;;;19.00;99.90;;;;;;5070102;28;20028;-59
2023/07/08 03:22:19;;;;;;;3.08;2.28;;;19.00;99.90;;;;;;5068623;28;20115;-58
2023/07/08 03:24:45;;;;;;;2.00;1.70;;;18.90;99.90;;;;;;5065510;28;20024;-58
2023/07/08 03:27:15;;;;;;;2.47;2.10;;;18.90;99.90;;;;;;5047648;28;20024;-59
2023/07/08 03:29:41;;;;;;;5.53;2.00;;;19.00;99.90;;;;;;5052763;28;20393;-58
2023/07/08 03:32:12;;;;;;;4.65;2.10;;;19.00;99.90;;;;;;5055763;28;20098;-58
2023/07/08 03:34:38;;;;;;;2.08;1.88;;;19.00;99.90;;;;;;5071738;28;20017;-58
2023/07/08 03:37:04;;;;;;;3.20;1.50;;;18.90;99.90;;;;;;5071809;28;20016;-60
2023/07/08 03:39:31;;;;;;;3.13;2.42;;;18.90;99.90;;;;;;5063872;28;20037;-59
2023/07/08 03:41:57;;;;;;;6.13;2.20;;;18.90;99.90;;;;;;5053184;28;20031;-59
2023/07/08 03:44:23;;;;;;;2.50;1.85;;;18.90;99.90;;;;;;5049859;28;20794;-59
2023/07/08 03:46:49;;;;;;;3.38;1.80;;;18.90;99.90;;;;;;5052779;28;20527;-59
2023/07/08 03:49:19;;;;;;;4.60;2.33;;;18.90;99.90;;;;;;5050760;28;20025;-60
2023/07/08 03:51:44;;;;;;;1.77;1.67;;;18.90;99.90;;;;;;5052755;28;20047;-59
2023/07/08 03:54:12;;;;;;;2.88;2.08;;;18.90;99.90;;;;;;5059880;28;20024;-59
2023/07/08 03:56:38;;;;;;;3.28;1.75;;;18.90;99.90;;;;;;5072772;28;20091;-59
2023/07/08 03:59:04;;;;;;;3.05;2.17;;;18.90;99.90;;;;;;5064148;28;20113;-59
2023/07/08 04:01:29;;;;;;;2.00;1.88;;;18.90;99.90;;;;;;5046420;28;20096;-59
2023/07/08 04:03:57;;;;;;;6.53;1.77;;;18.90;99.90;;;;;;5050206;28;20029;-59
2023/07/08 04:06:23;;;;;;;1.98;1.80;;;18.90;99.90;;;;;;5043607;28;20029;-59
2023/07/08 04:08:50;;;;;;;7.03;2.08;;;18.90;99.90;;;;;;5047594;28;20032;-62
2023/07/08 04:11:21;;;;;;;2.35;1.92;;;18.80;99.90;;;;;;5055068;28;20060;-59
2023/07/08 04:13:47;;;;;;;2.90;2.00;;;18.90;99.90;;;;;;5046871;28;20063;-59
2023/07/08 04:16:21;;;;;;;4.38;2.22;;;18.80;99.90;;;;;;5047377;28;20040;-62
2023/07/08 04:18:50;;;;;;;3.60;1.75;;;18.80;99.90;;;;;;5065924;28;20462;-59
2023/07/08 04:21:17;;;;;;;5.30;1.67;;;18.80;99.90;;;;;;5044157;28;20389;-58
2023/07/08 04:23:43;;;;;;;5.53;2.03;;;18.90;99.90;;;;;;5051192;28;20108;-58
2023/07/08 04:26:09;;;;;;;4.60;2.00;;;19.00;99.90;;;;;;5048201;28;20100;-59
2023/07/08 04:28:35;;;;;;;6.10;1.80;;;19.00;99.90;;;;;;5051104;28;20029;-58
2023/07/08 04:31:01;;;;;;;3.58;2.55;;;19.10;99.90;;;;;;5041262;28;20095;-58
2023/07/08 04:33:27;;;;;;;3.92;2.13;;;19.10;99.90;;;;;;5046660;28;20021;-59
2023/07/08 04:35:54;;;;;;;2.42;1.80;;;19.10;99.90;;;;;;5057603;28;20081;-58
2023/07/08 04:38:23;;;;;;;4.10;2.22;;;19.10;99.90;;;;;;5051995;28;20094;-64
2023/07/08 04:40:50;;;;;;;2.08;1.70;;;19.20;99.90;;;;;;5050380;28;20094;-58
2023/07/08 04:43:16;;;;;;;4.32;2.10;;;19.20;99.90;;;;;;5051128;28;20370;-58
2023/07/08 04:45:45;;;;;;;3.55;2.45;;;19.30;99.90;;;;;;5063404;28;20031;-58
2023/07/08 04:48:14;;;;;;;2.08;1.90;;;19.30;99.90;;;;;;5070450;28;20021;-58
2023/07/08 04:50:41;;;;;;;7.97;2.22;;;19.30;99.90;;;;;;5049208;28;20111;-58
2023/07/08 04:53:08;;;;;;;6.88;1.92;;;19.40;99.90;;;;;;5071329;28;20104;-59
2023/07/08 04:55:36;;;;;;;2.97;2.30;;;19.40;99.90;;;;;;5072386;28;20060;-59
2023/07/08 04:58:02;;;;;;;5.85;2.47;;;19.40;99.90;;;;;;5075926;28;20027;-59
2023/07/08 05:00:28;;;;;;;3.85;2.00;;;19.40;99.90;;;;;;5063211;28;20024;-59
2023/07/08 05:02:54;;;;;;;2.30;2.00;;;19.40;99.90;;;;;;5075963;28;20388;-58
2023/07/08 05:05:20;;;;;;;4.40;2.25;;;19.40;99.90;;;;;;5076063;28;20024;-59
2023/07/08 05:07:45;;;;;;;2.30;2.10;;;19.50;99.90;;;;;;5064249;28;20535;-59
2023/07/08 05:10:11;;;;;;;4.88;2.35;;;19.50;99.90;;;;;;5063971;28;20045;-58
2023/07/08 05:12:37;;;;;;;2.53;2.17;;;19.60;99.90;;;;;;5075613;28;20020;-60
2023/07/08 05:15:03;;;;;;;4.90;2.08;;;19.70;99.90;;;;;;5064685;28;20381;-61
2023/07/08 05:17:29;;;;;;;4.32;1.85;;;19.70;99.90;;;;;;5075917;28;20013;-59
2023/07/08 05:19:57;;;;;;;4.22;1.88;;;19.80;99.90;;;;;;5074342;28;20491;-58
2023/07/08 05:22:25;;;;;;;3.92;2.15;;;19.80;99.90;;;;;;5075471;28;20047;-59
2023/07/08 05:24:55;;;;;;;4.00;1.70;;;19.80;99.90;;;;;;5060628;28;20036;-65
2023/07/08 05:27:21;;;;;;;2.20;2.00;;;19.80;99.90;;;;;;5055404;28;20032;-59
2023/07/08 05:29:47;;;;;;;3.78;2.08;;;19.90;99.90;;;;;;5054629;28;20475;-59
2023/07/08 05:32:12;;;;;;;3.85;2.53;;;20.00;99.90;;;;;;5067304;28;20433;-58
2023/07/08 05:34:38;;;;;;;1.90;1.77;;;20.10;99.90;;;;;;5060803;28;20083;-59
2023/07/08 05:37:04;;;;;;;2.83;2.05;;;20.10;99.90;;;;;;5048225;28;20083;-59
2023/07/08 05:39:31;;;;;;;2.13;1.80;;;20.20;99.90;;;;;;5051786;28;20029;-59
2023/07/08 05:41:56;;;;;;;3.40;1.50;;;20.20;99.90;;;;;;5051484;28;21961;-59
2023/07/08 05:44:22;;;;;;;2.58;1.83;;;20.30;99.90;;;;;;5056113;28;20282;-59
2023/07/08 05:46:49;;;;;;;2.28;1.63;;;20.40;99.90;;;;;;5073805;28;20047;-59
2023/07/08 05:49:15;;;;;;;5.53;2.10;;;20.40;99.90;;;;;;5072480;28;20497;-63
2023/07/08 05:51:41;;;;;;;2.30;1.50;;;20.50;99.90;;;;;;5060101;28;20036;-63
2023/07/08 05:54:06;;;;;;;3.75;1.70;;;20.60;99.90;;;;;;5055765;28;20453;-63
2023/07/08 05:56:32;;;;;;;2.65;2.30;;;20.70;99.90;;;;;;5069928;28;20025;-61
2023/07/08 05:58:58;;;;;;;3.33;1.98;;;20.80;99.90;;;;;;5052890;28;20033;-63
2023/07/08 06:01:23;;;;;;;2.00;1.80;;;20.80;99.90;;;;;;5071623;28;20029;-63
2023/07/08 06:03:49;;;;;;;4.40;1.73;;;20.90;99.90;;;;;;5074283;28;20028;-58
2023/07/08 06:06:15;;;;;;;8.60;1.80;;;20.90;99.90;;;;;;5069380;28;20012;-64
2023/07/08 06:08:41;;;;;;;5.53;2.42;;;21.10;99.90;;;;;;5066565;28;20029;-69
2023/07/08 06:11:07;;;;;;;2.97;2.00;;;21.20;99.90;;;;;;5057956;28;20049;-63
2023/07/08 06:13:33;;;;;;;4.78;1.92;;;21.40;99.90;;;;;;5040021;28;20113;-63
2023/07/08 06:15:58;;;;;;;3.17;2.00;;;21.60;99.90;;;;;;5052349;28;20166;-62
2023/07/08 06:18:24;;;;;;;3.65;1.90;;;21.80;99.90;;;;;;5047706;28;20377;-61
2023/07/08 06:20:55;;;;;;;1.90;1.73;;;21.80;99.90;;;;;;5052673;28;20034;-62
2023/07/08 06:23:21;;;;;;;2.15;1.88;;;21.90;99.90;;;;;;5051504;28;20524;-62
2023/07/08 06:25:47;;;;;;;5.10;1.75;;;22.00;99.90;;;;;;5049923;28;20512;-64
2023/07/08 06:28:12;;;;;;;7.80;2.40;;;22.20;99.90;;;;;;5053668;28;20025;-63
2023/07/08 06:30:38;;;;;;;4.07;1.80;;;22.40;99.90;;;;;;5051094;28;20111;-63
2023/07/08 06:33:05;;;;;;;5.68;2.08;;;22.60;99.90;;;;;;5050394;28;20013;-62
2023/07/08 06:35:30;;;;;;;2.58;1.80;;;22.70;99.90;;;;;;5050843;28;20021;-63
2023/07/08 06:37:56;;;;;;;4.00;1.60;;;22.90;99.90;;;;;;5049885;28;20520;-62
2023/07/08 06:40:21;;;;;;;4.60;2.05;;;23.20;99.90;;;;;;5049365;28;20032;-63
2023/07/08 06:42:47;;;;;;;4.80;2.05;;;23.50;99.90;;;;;;5049360;28;20065;-63
2023/07/08 06:45:13;;;;;;;3.78;1.65;;;24.00;99.90;;;;;;5051144;28;20067;-62
2023/07/08 06:47:39;;;;;;;2.10;1.92;;;24.30;99.90;;;;;;5044661;28;20025;-62
2023/07/08 06:50:05;;;;;;;3.88;1.77;;;24.60;99.90;;;;;;5048786;28;20079;-61
2023/07/08 06:52:34;;;;;;;2.67;2.13;;;25.00;99.90;;;;;;5050291;28;20029;-62
2023/07/08 06:55:01;;;;;;;3.38;2.28;;;25.90;99.00;;;;;;5050363;28;20108;-62
2023/07/08 06:57:27;;;;;;;2.88;1.70;;;26.40;98.90;;;;;;5049846;28;20056;-62
2023/07/08 06:59:53;;;;;;;4.40;1.92;;;27.60;97.70;;;;;;5042839;28;20061;-62
2023/07/08 07:02:19;;;;;;;2.70;1.67;;;29.20;96.30;;;;;;5053504;28;20017;-67
2023/07/08 07:04:45;;;;;;;10.55;2.13;;;30.20;95.30;;;;;;5053437;28;20096;-61
2023/07/08 07:07:11;;;;;;;3.50;2.20;;;31.00;94.20;;;;;;5053330;28;20112;-61
2023/07/08 07:09:37;;;;;;;4.03;1.90;;;31.60;93.70;;;;;;5050188;28;20076;-61
2023/07/08 07:12:05;;;;;;;5.22;2.20;;;32.10;93.30;;;;;;5050080;28;20116;-60
2023/07/08 07:14:30;;;;;;;8.80;2.85;;;32.40;92.60;;;;;;5052618;28;20032;-61
2023/07/08 07:16:56;;;;;;;2.50;1.77;;;32.50;92.00;;;;;;5044756;28;20486;-60
2023/07/08 07:19:22;;;;;;;2.28;1.60;;;32.40;92.10;;;;;;5051651;28;20025;-61
2023/07/08 07:21:47;;;;;;;3.92;1.98;;;32.30;92.30;;;;;;5053152;28;20584;-62
2023/07/08 07:24:13;;;;;;;2.60;1.80;;;32.60;92.40;;;;;;5051573;28;20025;-60
2023/07/08 07:26:39;;;;;;;3.13;1.90;;;32.80;91.60;;;;;;5053402;28;20021;-60
2023/07/08 07:29:05;;;;;;;2.35;1.90;;;32.70;91.40;;;;;;5050327;28;20028;-62
2023/07/08 07:31:32;;;;;;;5.13;1.90;;;32.70;90.70;;;;;;5053294;28;20381;-63
2023/07/08 07:33:58;;;;;;;;;;;32.40;91.00;;;;;;5042490;28;20017;-62
2023/07/08 07:36:24;;;;;;;5.10;1.95;;;32.30;91.10;;;;;;5033102;28;19905;-61
2023/07/08 07:38:50;;;;;;;1.98;1.80;;;32.20;91.20;;;;;;5046796;28;20021;-62
2023/07/08 07:41:16;;;;;;;3.40;1.77;;;32.00;90.90;;;;;;5052779;28;20112;-61
2023/07/08 07:43:42;;;;;;;1.95;1.83;;;31.50;91.10;;;;;;5051445;28;20096;-63
2023/07/08 07:46:07;;;;;;;3.95;1.92;;;30.90;91.90;;;;;;5052818;28;20017;-62
2023/07/08 07:48:34;;;;;;;2.28;2.00;;;30.50;92.20;;;;;;5051739;28;20020;-58
2023/07/08 07:50:59;;;;;;;3.50;2.37;;;30.20;91.70;;;;;;5041255;28;20524;-61
2023/07/08 07:53:25;;;;;;;1.70;1.60;;;29.90;91.90;;;;;;5033945;28;20021;-62
2023/07/08 07:56:03;;;;;;;2.25;1.83;;;29.40;92.60;;;;;;5052784;28;20477;-60
2023/07/08 07:58:29;;;;;;;3.50;2.65;;;29.30;92.30;;;;;;5050693;28;20100;-63
2023/07/08 08:00:55;;;;;;;4.50;2.55;;;29.20;92.70;;;;;;5052679;28;20108;-60
2023/07/08 08:03:21;;;;;;;3.35;2.17;;;29.30;92.30;;;;;;5051847;28;20592;-60
2023/07/08 08:05:47;;;;;;;3.00;2.00;;;29.60;92.10;;;;;;5052682;28;20532;-60
2023/07/08 08:08:13;;;;;;;3.00;2.10;;;29.80;92.00;;;;;;5046164;28;20539;-59
2023/07/08 08:10:39;;;;;;;4.00;1.97;;;29.90;92.30;;;;;;5046144;28;20507;-62
2023/07/08 08:13:05;;;;;;;3.77;1.90;;;30.10;91.60;;;;;;5050158;28;20036;-64
2023/07/08 08:15:30;;;;;;;4.87;2.27;;;30.20;91.90;;;;;;5052734;28;20028;-61
2023/07/08 08:17:56;;;;;;;2.43;2.17;;;30.10;92.10;;;;;;5050504;28;20494;-61
2023/07/08 08:20:24;;;;;;;2.47;1.97;;;29.90;92.40;;;;;;5052449;28;20060;-61
2023/07/08 08:22:50;;;;;;;2.55;1.85;;;30.30;92.20;;;;;;5053459;28;20477;-61
2023/07/08 08:25:17;;;;;;;7.28;2.28;;;30.60;91.30;;;;;;5048462;28;20028;-60
2023/07/08 08:27:43;;;;;;;2.92;1.88;;;30.90;91.30;;;;;;5047065;28;20408;-60
2023/07/08 08:30:10;;;;;;;3.50;2.40;;;31.10;91.10;;;;;;5056009;28;20711;-60
2023/07/08 08:32:35;;;;;;;2.60;2.22;;;31.20;91.10;;;;;;5065148;28;20024;-60
2023/07/08 08:35:01;;;;;;;3.70;2.83;;;31.40;91.20;;;;;;5068814;28;20025;-59
2023/07/08 08:37:27;;;;;;;2.73;2.53;;;31.60;90.60;;;;;;5056190;28;20032;-59
2023/07/08 08:39:52;;;;;;;4.00;2.83;;;31.90;90.80;;;;;;5054309;28;20405;-59
2023/07/08 08:42:41;;;;;;;2.40;2.20;;;32.10;90.40;;;;;;5066952;28;20070;-60
2023/07/08 08:45:14;;;;;;;2.25;2.10;;;31.90;91.00;;;;;;5037592;28;20037;-61
2023/07/08 08:47:43;;;;;;;2.90;2.65;;;32.10;90.50;;;;;;5056640;28;20119;-60
2023/07/08 08:50:24;;;;;;;3.03;2.40;;;32.30;90.80;;;;;;5073083;28;20669;-60
2023/07/08 08:52:51;;;;;;;3.53;2.40;;;32.50;90.50;;;;;;5076286;28;20099;-60
2023/07/08 08:55:16;;;;;;;4.00;2.55;;;32.50;90.50;;;;;;5052984;28;20051;-59
2023/07/08 08:57:50;;;;;;;3.63;2.43;;;32.70;90.10;;;;;;5053200;28;20432;-60
2023/07/08 09:00:33;;;;;;;4.50;2.50;;;33.00;90.40;;;;;;5052408;28;20275;-59
2023/07/08 09:03:09;;;;;;;3.95;2.22;;;33.20;90.10;;;;;;5035742;28;20496;-61
2023/07/08 09:05:34;;;;;;;4.67;2.63;;;33.40;90.50;;;;;;5051737;28;20078;-60
2023/07/08 09:08:25;;;;;;;6.27;3.07;;;33.50;90.00;;;;;;5053440;28;20470;-61
2023/07/08 09:11:09;;;;;;;4.47;2.00;;;33.40;90.40;;;;;;5048228;28;20049;-61
2023/07/08 09:13:36;;;;;;;3.75;3.33;;;33.70;90.50;;;;;;5040122;28;20071;-60
2023/07/08 09:16:09;;;;;;;3.67;2.70;;;34.10;88.20;;;;;;5055262;28;20056;-60
2023/07/08 09:19:10;;;;;;;4.65;3.08;;;34.30;86.90;;;;;;5051175;28;20032;-59
2023/07/08 09:22:01;;;;;;;3.42;2.83;;;34.50;85.90;;;;;;5054698;28;20520;-59
2023/07/08 09:24:40;;;;;;;6.57;3.33;;;34.10;86.80;;;;;;5059152;28;20017;-60
2023/07/08 09:27:06;;;;;;;3.47;2.97;;;33.80;87.10;;;;;;5038747;28;20047;-59
2023/07/08 09:29:33;;;;;;;2.90;2.60;;;33.80;86.50;;;;;;5052373;28;20500;-59
2023/07/08 09:32:00;;;;;;;6.03;3.75;;;33.50;88.60;;;;;;5055464;28;20408;-59
2023/07/08 09:34:40;;;;;;;4.70;3.13;;;33.40;87.10;;;;;;5055301;28;20022;-60
2023/07/08 09:37:24;;;;;;;7.22;3.15;;;33.20;87.60;;;;;;5053181;28;20021;-59
2023/07/08 09:39:51;;;;;;;5.82;3.42;;;33.00;88.90;;;;;;5054137;28;20020;-59
2023/07/08 09:42:17;;;;;;;4.00;3.45;;;33.00;88.00;;;;;;5051227;28;20029;-59
2023/07/08 09:44:45;;;;;;;8.03;3.17;;;32.80;89.80;;;;;;5052692;28;20539;-59
2023/07/08 09:47:28;;;;;;;7.20;3.20;;;32.70;88.80;;;;;;5052907;28;20024;-59
2023/07/08 09:49:54;;;;;;;3.88;3.10;;;32.60;89.00;;;;;;5053736;28;20115;-58
2023/07/08 09:52:19;;;;;;;7.17;3.50;;;32.40;88.60;;;;;;5052908;28;20103;-59
2023/07/08 09:54:47;;;;;;;4.67;2.93;;;32.30;87.60;;;;;;5054884;28;20017;-60
2023/07/08 09:57:26;;;;;;;5.35;3.50;;;32.10;88.10;;;;;;5051758;28;20293;-59
2023/07/08 09:59:58;;;;;;;5.78;2.80;;;31.80;89.90;;;;;;5050798;28;20385;-59
2023/07/08 10:02:40;;;;;;;5.95;3.40;;;31.70;89.70;;;;;;5055321;28;20056;-59
2023/07/08 10:05:41;;;;;;;6.15;3.03;;;31.60;90.30;;;;;;5058393;28;20035;-58
2023/07/08 10:08:22;;;;;;;5.35;3.50;;;31.70;90.60;;;;;;5048021;28;20128;-58
2023/07/08 10:10:57;;;;;;;5.85;3.40;;;31.60;90.30;;;;;;5062900;28;20041;-59
2023/07/08 10:13:40;;;;;;;4.68;3.50;;;31.90;89.70;;;;;;5061393;28;20033;-58
2023/07/08 10:16:12;;;;;;;5.97;3.40;;;32.20;89.10;;;;;;5074553;28;20504;-57
2023/07/08 10:18:38;;;;;;;10.90;3.72;;;32.40;89.90;;;;;;5048939;28;20488;-59
2023/07/08 10:21:19;;;;;;;7.47;3.97;;;32.40;89.90;;;;;;5064270;28;20029;-60
2023/07/08 10:23:56;;;;;;;4.95;3.58;;;32.50;89.80;;;;;;5053902;28;20504;-59
2023/07/08 10:26:31;;;;;;;4.57;3.45;;;32.90;89.20;;;;;;5053251;28;20025;-59
2023/07/08 10:29:32;;;;;;;5.22;3.42;;;33.20;88.90;;;;;;5050692;28;20029;-60
2023/07/08 10:32:03;;;;;;;5.10;3.22;;;33.60;88.60;;;;;;5073151;28;20029;-59
2023/07/08 10:34:49;;;;;;;4.78;3.25;;;34.00;86.80;;;;;;5043562;28;20071;-59
2023/07/08 10:37:52;;;;;;;5.25;3.78;;;34.20;86.90;;;;;;5050728;28;20596;-59
2023/07/08 10:40:46;;;;;;;7.53;3.78;;;34.30;86.00;;;;;;5052865;28;20091;-60
2023/07/08 10:43:39;;;;;;;5.15;3.40;;;34.70;83.40;;;;;;5050628;28;20017;-60
2023/07/08 10:46:31;;;;;;;7.03;3.75;;;34.40;84.40;;;;;;5037602;28;20029;-59
2023/07/08 10:49:06;;;;;;;4.10;3.70;;;34.10;84.80;;;;;;5033894;28;20485;-59
2023/07/08 10:51:56;;;;;;;7.50;3.70;;;33.80;84.90;;;;;;5052357;28;20037;-60
2023/07/08 10:54:32;;;;;;;3.38;3.08;;;33.50;87.80;;;;;;5048933;28;20036;-59
2023/07/08 10:57:11;;;;;;;7.93;3.58;;;33.40;86.80;;;;;;5054525;28;20386;-59
2023/07/08 11:00:03;;;;;;;9.60;3.92;;;33.50;85.80;;;;;;5045152;28;20082;-59
2023/07/08 11:02:32;;;;;;;7.32;4.00;;;33.40;87.40;;;;;;5042812;28;20040;-60
2023/07/08 11:05:04;;;;;;;6.00;4.35;;;33.30;86.50;;;;;;5053758;28;20033;-63
2023/07/08 11:07:43;;;;;;;7.05;3.75;;;33.20;87.30;;;;;;5050762;28;20021;-60
2023/07/08 11:10:16;;;;;;;4.70;3.58;;;33.20;88.70;;;;;;5053149;28;20048;-62
2023/07/08 11:12:58;;;;;;;5.50;3.42;;;33.20;89.00;;;;;;5049888;28;20390;-60
2023/07/08 11:15:31;;;;;;;7.30;4.22;;;33.00;89.60;;;;;;5038175;28;20026;-58
2023/07/08 11:18:13;;;;;;;5.00;3.42;;;33.00;88.30;;;;;;5034011;28;20029;-58
2023/07/08 11:21:20;;;;;;;5.32;4.25;;;33.10;88.10;;;;;;5048974;28;20029;-58
2023/07/08 11:24:04;;;;;;;4.53;3.63;;;33.00;88.80;;;;;;5033388;28;20052;-58
2023/07/08 11:26:56;;;;;;;4.25;3.83;;;32.90;88.40;;;;;;5035838;28;20029;-58
2023/07/08 11:29:28;;;;;;;22.77;4.30;;;32.90;88.20;;;;;;5047137;28;20140;-58
2023/07/08 11:31:55;;;;;;;5.35;3.25;;;32.90;88.70;;;;;;5042115;28;20053;-58
2023/07/08 11:34:21;;;;;;;10.90;4.30;;;32.90;89.80;;;;;;5033280;28;20091;-59
2023/07/08 11:36:49;;;;;;;6.63;4.07;;;33.00;89.30;;;;;;5039065;28;20025;-59
2023/07/08 11:39:54;;;;;;;6.50;3.85;;;33.00;87.70;;;;;;5052752;28;20029;-59
2023/07/08 11:42:42;;;;;;;5.35;3.70;;;32.90;89.80;;;;;;5046535;28;20653;-59
2023/07/08 11:45:35;;;;;;;9.48;3.70;;;32.90;86.50;;;;;;5036136;28;20123;-60
2023/07/08 11:48:13;;;;;;;4.63;3.95;;;33.00;86.90;;;;;;5038888;28;20021;-57
2023/07/08 11:50:42;;;;;;;5.13;3.45;;;33.20;85.00;;;;;;5034417;28;20033;-59
2023/07/08 11:53:10;;;;;;;8.20;3.50;;;33.30;85.30;;;;;;5040482;28;20017;-59
2023/07/08 11:55:55;;;;;;;5.95;3.60;;;33.40;86.70;;;;;;5052723;28;20025;-60
2023/07/08 11:58:24;;;;;;;4.72;3.58;;;33.50;86.70;;;;;;5038714;28;20109;-59
2023/07/08 12:01:13;;;;;;;5.45;3.88;;;33.50;84.50;;;;;;5039399;28;20580;-60
2023/07/08 12:03:48;;;;;;;5.60;3.92;;;33.60;84.70;;;;;;5050684;28;20403;-59
2023/07/08 12:06:32;;;;;;;6.97;4.10;;;33.70;83.00;;;;;;5038748;28;20017;-59
2023/07/08 12:09:00;;;;;;;7.55;3.63;;;33.80;81.90;;;;;;5045089;28;20080;-72
2023/07/08 12:11:33;;;;;;;8.43;3.38;;;33.80;84.60;;;;;;5040650;28;20108;-59
2023/07/08 12:14:02;;;;;;;6.32;3.72;;;33.90;83.70;;;;;;5040959;28;20040;-59
2023/07/08 12:16:30;;;;;;;5.40;3.95;;;33.90;84.30;;;;;;5039332;28;20032;-60
2023/07/08 12:19:01;;;;;;;4.93;3.22;;;34.00;85.90;;;;;;5040161;28;20409;-60
2023/07/08 12:21:27;;;;;;;5.35;3.55;;;34.10;85.40;;;;;;5035690;28;20025;-59
2023/07/08 12:23:53;;;;;;;5.35;3.83;;;34.30;82.30;;;;;;5048988;28;20025;-59
2023/07/08 12:26:21;;;;;;;4.90;3.75;;;34.40;81.90;;;;;;5045566;28;20087;-59
2023/07/08 12:28:46;;;;;;;6.25;4.50;;;34.30;80.80;;;;;;5047086;28;20025;-59
2023/07/08 12:31:21;;;;;;;5.07;3.50;;;34.20;82.90;;;;;;5052129;28;20025;-60
2023/07/08 12:33:48;;;;;;;9.25;3.80;;;34.20;80.20;;;;;;5034490;28;20021;-60
2023/07/08 12:36:17;;;;;;;;;;;34.30;80.00;;;;;;5032792;28;20521;-59
2023/07/08 12:38:47;;;;;;;11.50;4.07;;;34.20;79.10;;;;;;5057588;28;20358;-59
2023/07/08 12:41:23;;;;;;;8.55;4.47;;;34.20;79.90;;;;;;5047682;28;20045;-61
2023/07/08 12:43:50;;;;;;;12.55;4.85;;;34.20;79.90;;;;;;5052209;28;20029;-59
2023/07/08 12:46:19;;;;;;;4.80;3.55;;;34.30;79.30;;;;;;5052463;28;20053;-59
2023/07/08 12:48:44;;;;;;;12.45;4.10;;;34.40;78.10;;;;;;5051194;28;20029;-61
2023/07/08 12:51:16;;;;;;;5.93;3.80;;;34.40;79.80;;;;;;5052091;28;20033;-60
2023/07/08 12:53:43;;;;;;;4.97;4.40;;;34.30;81.00;;;;;;5049837;28;20558;-59
2023/07/08 12:56:09;;;;;;;;;;;34.40;79.30;;;;;;5044788;28;20026;-60
2023/07/08 12:58:39;;;;;;;11.95;4.28;;;34.50;80.70;;;;;;5050881;28;19957;-60
2023/07/08 13:01:06;;;;;;;6.82;3.83;;;34.60;80.20;;;;;;5050983;28;20078;-59
2023/07/08 13:03:44;;;;;;;7.80;3.55;;;34.70;78.40;;;;;;5049085;28;20489;-58